createdAt,value
2022-08-29T00:00:31.813Z,3.20
2022-08-29T00:01:31.800Z,3.30
2022-08-29T00:02:31.847Z,3.00
2022-08-29T00:03:31.765Z,3.50
2022-08-29T00:04:31.914Z,3.30
2022-08-29T00:05:31.725Z,3.10
2022-08-29T00:06:31.701Z,3.30
2022-08-29T00:07:31.685Z,3.20
2022-08-29T00:08:31.668Z,3.40
2022-08-29T00:09:31.646Z,3.30
2022-08-29T00:10:31.630Z,3.40
2022-08-29T00:11:31.613Z,3.30
2022-08-29T00:12:31.591Z,3.50
2022-08-29T00:13:31.577Z,3.30
2022-08-29T00:14:31.558Z,3.50
2022-08-29T00:15:31.541Z,3.50
2022-08-29T00:16:31.558Z,3.30
2022-08-29T00:17:31.507Z,3.10
2022-08-29T00:18:31.483Z,3.30
2022-08-29T00:19:31.493Z,3.20
2022-08-29T00:20:34.630Z,3.40
2022-08-29T00:21:31.432Z,3.10
2022-08-29T00:22:31.416Z,3.10
2022-08-29T00:23:31.405Z,3.20
2022-08-29T00:24:31.383Z,3.10
2022-08-29T00:25:31.365Z,3.10
2022-08-29T00:26:31.486Z,3.40
2022-08-29T00:27:31.329Z,3.30
2022-08-29T00:28:31.305Z,3.00
2022-08-29T00:29:31.288Z,2.90
2022-08-29T00:30:31.287Z,3.30
2022-08-29T00:31:31.281Z,3.20
2022-08-29T00:32:31.239Z,3.20
2022-08-29T00:33:31.221Z,3.00
2022-08-29T00:34:31.198Z,3.10
2022-08-29T00:35:31.167Z,3.50
2022-08-29T00:36:31.160Z,3.10
2022-08-29T00:37:31.139Z,3.10
2022-08-29T00:38:31.122Z,3.10
2022-08-29T00:39:32.876Z,3.30
2022-08-29T00:40:31.137Z,3.50
2022-08-29T00:41:31.067Z,2.90
2022-08-29T00:42:31.051Z,3.50
2022-08-29T00:43:31.035Z,2.90
2022-08-29T00:44:31.014Z,2.90
2022-08-29T00:45:31.064Z,3.30
2022-08-29T00:46:30.978Z,3.00
2022-08-29T00:47:30.961Z,3.30
2022-08-29T00:48:30.939Z,3.20
2022-08-29T00:49:30.922Z,3.20
2022-08-29T00:50:30.904Z,3.10
2022-08-29T00:51:30.886Z,2.90
2022-08-29T00:52:30.862Z,3.20
2022-08-29T00:53:30.848Z,3.00
2022-08-29T00:54:30.828Z,3.10
2022-08-29T00:55:30.810Z,3.30
2022-08-29T00:56:30.788Z,3.20
2022-08-29T00:57:30.771Z,3.00
2022-08-29T00:58:30.755Z,3.20
2022-08-29T00:59:30.734Z,3.30
2022-08-29T01:00:30.716Z,3.20
2022-08-29T01:01:30.771Z,3.30
2022-08-29T01:02:30.784Z,3.10
2022-08-29T01:03:30.661Z,3.40
2022-08-29T01:04:30.641Z,3.40
2022-08-29T01:05:30.623Z,3.00
2022-08-29T01:06:30.602Z,3.30
2022-08-29T01:07:30.586Z,3.10
2022-08-29T01:08:30.564Z,3.30
2022-08-29T01:09:30.552Z,3.00
2022-08-29T01:10:30.527Z,3.20
2022-08-29T01:11:31.515Z,3.20
2022-08-29T01:12:30.495Z,3.30
2022-08-29T01:13:30.479Z,3.10
2022-08-29T01:14:30.452Z,3.40
2022-08-29T01:15:31.440Z,3.30
2022-08-29T01:16:30.478Z,3.20
2022-08-29T01:17:30.405Z,3.30
2022-08-29T01:18:30.383Z,3.30
2022-08-29T01:19:30.362Z,3.30
2022-08-29T01:20:30.343Z,3.30
2022-08-29T01:21:30.324Z,3.00
2022-08-29T01:22:30.314Z,3.40
2022-08-29T01:23:30.292Z,3.10
2022-08-29T01:24:30.274Z,3.20
2022-08-29T01:25:30.249Z,3.50
2022-08-29T01:26:30.239Z,3.40
2022-08-29T01:27:30.218Z,3.50
2022-08-29T01:28:30.199Z,3.40
2022-08-29T01:29:30.183Z,3.20
2022-08-29T01:30:30.164Z,3.20
2022-08-29T01:31:37.308Z,3.30
2022-08-29T01:32:31.148Z,3.40
2022-08-29T01:33:30.113Z,3.40
2022-08-29T01:34:30.103Z,3.50
2022-08-29T01:35:30.084Z,3.40
2022-08-29T01:36:30.063Z,3.50
2022-08-29T01:37:30.043Z,3.20
2022-08-29T01:38:30.025Z,3.60
2022-08-29T01:39:30.012Z,3.40
2022-08-29T01:40:30.099Z,3.20
2022-08-29T01:41:29.970Z,3.20
2022-08-29T01:42:32.312Z,3.30
2022-08-29T01:43:30.933Z,3.30
2022-08-29T01:44:29.917Z,3.40
2022-08-29T01:45:29.924Z,3.20
2022-08-29T01:46:29.881Z,3.20
2022-08-29T01:47:29.867Z,3.40
2022-08-29T01:48:29.843Z,3.30
2022-08-29T01:49:29.831Z,3.50
2022-08-29T01:50:29.809Z,3.50
2022-08-29T01:51:29.794Z,3.30
2022-08-29T01:52:29.877Z,3.40
2022-08-29T01:53:29.788Z,3.30
2022-08-29T01:54:29.744Z,3.50
2022-08-29T01:55:29.721Z,3.40
2022-08-29T01:56:29.701Z,3.50
2022-08-29T01:57:29.683Z,3.10
2022-08-29T01:58:29.671Z,3.40
2022-08-29T01:59:29.652Z,3.30
2022-08-29T02:00:29.640Z,3.40
2022-08-29T02:01:29.672Z,3.30
2022-08-29T02:02:29.644Z,3.70
2022-08-29T02:03:29.588Z,3.70
2022-08-29T02:04:29.564Z,3.50
2022-08-29T02:05:29.539Z,3.30
2022-08-29T02:06:29.538Z,3.30
2022-08-29T02:07:29.529Z,3.40
2022-08-29T02:08:29.495Z,3.40
2022-08-29T02:09:29.482Z,3.30
2022-08-29T02:10:29.454Z,3.60
2022-08-29T02:11:29.436Z,3.50
2022-08-29T02:12:29.421Z,3.30
2022-08-29T02:13:29.404Z,3.40
2022-08-29T02:14:29.391Z,3.30
2022-08-29T02:15:29.361Z,3.20
2022-08-29T02:16:29.389Z,3.40
2022-08-29T02:17:29.333Z,3.40
2022-08-29T02:18:29.310Z,3.20
2022-08-29T02:19:29.294Z,3.40
2022-08-29T02:20:29.277Z,3.30
2022-08-29T02:21:29.257Z,3.50
2022-08-29T02:22:29.236Z,3.20
2022-08-29T02:23:31.198Z,3.30
2022-08-29T02:24:29.203Z,3.20
2022-08-29T02:25:29.188Z,3.20
2022-08-29T02:26:29.168Z,3.40
2022-08-29T02:27:29.151Z,3.50
2022-08-29T02:28:29.130Z,3.30
2022-08-29T02:29:30.859Z,3.40
2022-08-29T02:30:30.098Z,3.30
2022-08-29T02:31:29.172Z,3.50
2022-08-29T02:32:29.060Z,3.50
2022-08-29T02:33:29.081Z,3.30
2022-08-29T02:34:29.032Z,3.40
2022-08-29T02:35:29.008Z,3.10
2022-08-29T02:36:28.993Z,3.10
2022-08-29T02:37:28.976Z,3.50
2022-08-29T02:38:28.960Z,3.60
2022-08-29T02:39:28.941Z,3.40
2022-08-29T02:40:31.933Z,3.70
2022-08-29T02:41:28.904Z,3.60
2022-08-29T02:42:28.894Z,3.60
2022-08-29T02:43:28.870Z,3.50
2022-08-29T02:44:28.852Z,3.60
2022-08-29T02:45:28.835Z,3.50
2022-08-29T02:46:28.829Z,3.50
2022-08-29T02:47:28.794Z,3.30
2022-08-29T02:48:28.781Z,3.80
2022-08-29T02:49:28.765Z,3.30
2022-08-29T02:50:28.742Z,3.60
2022-08-29T02:51:28.724Z,3.50
2022-08-29T02:52:28.717Z,3.60
2022-08-29T02:53:28.688Z,3.20
2022-08-29T02:54:28.675Z,3.50
2022-08-29T02:55:28.655Z,3.60
2022-08-29T02:56:28.638Z,3.80
2022-08-29T02:57:28.620Z,3.40
2022-08-29T02:58:28.599Z,3.60
2022-08-29T02:59:28.584Z,3.40
2022-08-29T03:00:28.594Z,3.90
2022-08-29T03:01:28.589Z,3.80
2022-08-29T03:02:28.537Z,3.60
2022-08-29T03:03:28.519Z,3.70
2022-08-29T03:04:28.503Z,3.60
2022-08-29T03:05:28.481Z,3.50
2022-08-29T03:06:28.475Z,3.70
2022-08-29T03:07:28.452Z,3.50
2022-08-29T03:08:28.424Z,3.30
2022-08-29T03:09:28.417Z,3.80
2022-08-29T03:10:28.388Z,3.70
2022-08-29T03:11:28.381Z,3.40
2022-08-29T03:12:28.358Z,3.40
2022-08-29T03:13:28.352Z,3.80
2022-08-29T03:14:28.321Z,3.50
2022-08-29T03:15:28.315Z,3.70
2022-08-29T03:16:28.357Z,3.60
2022-08-29T03:17:28.272Z,3.50
2022-08-29T03:18:28.250Z,3.70
2022-08-29T03:19:28.236Z,3.60
2022-08-29T03:20:28.220Z,3.40
2022-08-29T03:21:28.203Z,3.60
2022-08-29T03:22:28.184Z,3.70
2022-08-29T03:23:28.167Z,3.70
2022-08-29T03:24:28.145Z,3.50
2022-08-29T03:25:28.131Z,3.50
2022-08-29T03:26:28.123Z,3.50
2022-08-29T03:27:28.097Z,3.60
2022-08-29T03:28:28.081Z,3.40
2022-08-29T03:29:28.067Z,3.50
2022-08-29T03:30:28.045Z,3.70
2022-08-29T03:31:28.050Z,3.60
2022-08-29T03:32:28.012Z,3.50
2022-08-29T03:33:27.991Z,3.40
2022-08-29T03:34:27.979Z,3.70
2022-08-29T03:35:27.958Z,3.80
2022-08-29T03:36:27.943Z,3.60
2022-08-29T03:37:27.920Z,3.70
2022-08-29T03:38:27.906Z,3.90
2022-08-29T03:39:27.894Z,3.50
2022-08-29T03:40:27.922Z,3.80
2022-08-29T03:41:27.859Z,3.40
2022-08-29T03:42:27.841Z,3.40
2022-08-29T03:43:27.821Z,3.30
2022-08-29T03:44:27.803Z,3.40
2022-08-29T03:45:27.787Z,3.40
2022-08-29T03:46:27.827Z,3.40
2022-08-29T03:47:27.751Z,4.00
2022-08-29T03:48:27.727Z,3.30
2022-08-29T03:49:27.717Z,3.50
2022-08-29T03:50:27.695Z,3.40
2022-08-29T03:51:29.348Z,3.60
2022-08-29T03:52:27.660Z,3.70
2022-08-29T03:53:27.650Z,4.00
2022-08-29T03:54:28.281Z,3.50
2022-08-29T03:55:27.607Z,3.30
2022-08-29T03:56:27.586Z,3.50
2022-08-29T03:57:27.571Z,3.50
2022-08-29T03:58:27.551Z,3.20
2022-08-29T03:59:27.537Z,3.50
2022-08-29T04:00:27.515Z,3.50
2022-08-29T04:01:28.530Z,3.80
2022-08-29T04:02:27.526Z,3.20
2022-08-29T04:03:31.023Z,3.60
2022-08-29T04:04:27.446Z,3.60
2022-08-29T04:05:27.426Z,3.60
2022-08-29T04:06:27.411Z,3.80
2022-08-29T04:07:27.391Z,3.60
2022-08-29T04:08:27.371Z,3.80
2022-08-29T04:09:27.363Z,3.40
2022-08-29T04:10:27.335Z,3.60
2022-08-29T04:11:27.323Z,3.50
2022-08-29T04:12:28.275Z,3.20
2022-08-29T04:13:27.893Z,3.70
2022-08-29T04:14:27.264Z,3.50
2022-08-29T04:15:27.245Z,3.20
2022-08-29T04:16:30.583Z,3.40
2022-08-29T04:17:27.204Z,3.90
2022-08-29T04:18:27.192Z,3.80
2022-08-29T04:19:27.169Z,3.70
2022-08-29T04:20:27.150Z,3.20
2022-08-29T04:21:27.347Z,3.50
2022-08-29T04:22:27.118Z,3.50
2022-08-29T04:23:27.104Z,3.90
2022-08-29T04:24:27.081Z,3.40
2022-08-29T04:25:27.066Z,4.00
2022-08-29T04:26:41.257Z,3.20
2022-08-29T04:27:29.034Z,3.40
2022-08-29T04:28:27.014Z,3.20
2022-08-29T04:29:27.000Z,3.40
2022-08-29T04:30:26.977Z,3.70
2022-08-29T04:31:26.996Z,3.50
2022-08-29T04:32:26.940Z,3.50
2022-08-29T04:33:26.931Z,3.20
2022-08-29T04:34:26.910Z,3.40
2022-08-29T04:35:26.888Z,3.70
2022-08-29T04:36:26.866Z,3.10
2022-08-29T04:37:26.851Z,3.50
2022-08-29T04:38:26.833Z,3.50
2022-08-29T04:39:26.817Z,3.70
2022-08-29T04:40:26.829Z,3.70
2022-08-29T04:41:26.789Z,3.20
2022-08-29T04:42:26.769Z,3.40
2022-08-29T04:43:26.742Z,3.40
2022-08-29T04:44:26.725Z,3.30
2022-08-29T04:45:26.708Z,3.40
2022-08-29T04:46:26.723Z,3.30
2022-08-29T04:47:26.675Z,3.10
2022-08-29T04:48:26.655Z,3.20
2022-08-29T04:49:26.636Z,3.80
2022-08-29T04:50:26.617Z,3.50
2022-08-29T04:51:26.601Z,3.40
2022-08-29T04:52:26.579Z,3.50
2022-08-29T04:53:26.563Z,3.50
2022-08-29T04:54:26.543Z,3.30
2022-08-29T04:55:26.524Z,3.50
2022-08-29T04:56:26.503Z,3.40
2022-08-29T04:57:26.482Z,3.30
2022-08-29T04:58:26.477Z,3.40
2022-08-29T04:59:26.443Z,3.20
2022-08-29T05:00:26.420Z,3.30
2022-08-29T05:01:27.388Z,3.60
2022-08-29T05:02:27.405Z,3.40
2022-08-29T05:03:26.354Z,3.20
2022-08-29T05:04:26.327Z,3.30
2022-08-29T05:05:27.270Z,3.30
2022-08-29T05:06:26.287Z,3.30
2022-08-29T05:07:26.260Z,3.40
2022-08-29T05:08:26.239Z,3.20
2022-08-29T05:09:26.213Z,3.40
2022-08-29T05:10:26.198Z,3.70
2022-08-29T05:11:26.179Z,3.30
2022-08-29T05:12:26.178Z,3.40
2022-08-29T05:13:26.134Z,3.20
2022-08-29T05:14:26.115Z,3.60
2022-08-29T05:15:26.098Z,3.10
2022-08-29T05:16:26.077Z,3.30
2022-08-29T05:17:26.062Z,3.30
2022-08-29T05:18:26.044Z,3.40
2022-08-29T05:19:26.022Z,3.40
2022-08-29T05:20:25.999Z,3.40
2022-08-29T05:21:26.101Z,3.50
2022-08-29T05:22:25.962Z,3.40
2022-08-29T05:23:25.941Z,3.30
2022-08-29T05:24:25.921Z,3.50
2022-08-29T05:25:25.901Z,3.60
2022-08-29T05:26:25.883Z,3.50
2022-08-29T05:27:25.863Z,3.20
2022-08-29T05:28:25.849Z,3.50
2022-08-29T05:29:25.836Z,3.30
2022-08-29T05:30:34.990Z,3.70
2022-08-29T05:31:26.859Z,3.70
2022-08-29T05:32:25.764Z,3.70
2022-08-29T05:33:25.753Z,3.40
2022-08-29T05:34:34.006Z,3.20
2022-08-29T05:35:26.718Z,3.30
2022-08-29T05:36:25.767Z,3.50
2022-08-29T05:37:25.676Z,3.50
2022-08-29T05:38:25.656Z,3.70
2022-08-29T05:39:25.643Z,3.50
2022-08-29T05:40:25.664Z,3.30
2022-08-29T05:41:25.599Z,3.60
2022-08-29T05:42:25.584Z,3.50
2022-08-29T05:43:25.564Z,3.60
2022-08-29T05:44:25.544Z,3.50
2022-08-29T05:45:25.526Z,3.50
2022-08-29T05:46:25.547Z,3.70
2022-08-29T05:47:25.499Z,3.30
2022-08-29T05:48:25.472Z,3.40
2022-08-29T05:49:25.451Z,3.70
2022-08-29T05:50:25.434Z,3.50
2022-08-29T05:51:25.415Z,3.30
2022-08-29T05:52:25.403Z,3.10
2022-08-29T05:53:25.377Z,3.60
2022-08-29T05:54:25.360Z,3.30
2022-08-29T05:55:25.347Z,3.50
2022-08-29T05:56:25.326Z,3.70
2022-08-29T05:57:25.311Z,3.70
2022-08-29T05:58:25.291Z,3.80
2022-08-29T05:59:25.869Z,3.50
2022-08-29T06:00:25.250Z,3.70
2022-08-29T06:01:25.740Z,3.60
2022-08-29T06:02:25.329Z,3.50
2022-08-29T06:03:25.268Z,3.20
2022-08-29T06:04:25.181Z,3.60
2022-08-29T06:05:25.174Z,3.60
2022-08-29T06:06:25.148Z,3.50
2022-08-29T06:07:25.127Z,3.50
2022-08-29T06:08:25.111Z,3.60
2022-08-29T06:09:25.092Z,3.60
2022-08-29T06:10:25.077Z,3.30
2022-08-29T06:11:25.873Z,3.70
2022-08-29T06:12:25.044Z,3.90
2022-08-29T06:13:25.022Z,3.60
2022-08-29T06:14:25.003Z,3.80
2022-08-29T06:15:24.987Z,3.80
2022-08-29T06:16:24.968Z,3.60
2022-08-29T06:17:24.950Z,3.30
2022-08-29T06:18:26.940Z,3.60
2022-08-29T06:19:25.917Z,3.70
2022-08-29T06:20:24.899Z,3.50
2022-08-29T06:21:24.877Z,3.50
2022-08-29T06:22:24.859Z,3.70
2022-08-29T06:23:24.841Z,3.70
2022-08-29T06:24:24.824Z,3.70
2022-08-29T06:25:40.539Z,3.50
2022-08-29T06:26:26.792Z,3.80
2022-08-29T06:27:24.773Z,3.40
2022-08-29T06:28:24.765Z,3.60
2022-08-29T06:29:24.743Z,3.60
2022-08-29T06:30:24.724Z,3.60
2022-08-29T06:31:24.750Z,3.20
2022-08-29T06:32:24.687Z,3.30
2022-08-29T06:33:24.667Z,3.30
2022-08-29T06:34:24.655Z,3.30
2022-08-29T06:35:24.629Z,3.60
2022-08-29T06:36:25.620Z,3.40
2022-08-29T06:37:24.599Z,3.70
2022-08-29T06:38:24.583Z,3.70
2022-08-29T06:39:24.563Z,3.50
2022-08-29T06:40:24.599Z,3.40
2022-08-29T06:41:24.528Z,3.60
2022-08-29T06:42:24.505Z,3.30
2022-08-29T06:43:25.487Z,3.40
2022-08-29T06:44:24.474Z,3.80
2022-08-29T06:45:24.456Z,3.60
2022-08-29T06:46:24.481Z,3.70
2022-08-29T06:47:24.421Z,3.60
2022-08-29T06:48:27.605Z,3.50
2022-08-29T06:49:26.385Z,3.50
2022-08-29T06:50:24.376Z,4.00
2022-08-29T06:51:24.355Z,3.30
2022-08-29T06:52:24.335Z,3.60
2022-08-29T06:53:31.705Z,3.50
2022-08-29T06:54:27.861Z,3.40
2022-08-29T06:55:24.434Z,3.80
2022-08-29T06:56:24.267Z,3.50
2022-08-29T06:57:24.251Z,3.40
2022-08-29T06:58:24.233Z,3.60
2022-08-29T06:59:24.221Z,3.60
2022-08-29T07:00:24.204Z,3.90
2022-08-29T07:01:24.223Z,3.70
2022-08-29T07:02:24.243Z,3.60
2022-08-29T07:03:24.153Z,3.80
2022-08-29T07:04:26.706Z,3.60
2022-08-29T07:05:24.119Z,3.70
2022-08-29T07:06:24.103Z,3.70
2022-08-29T07:07:24.083Z,3.50
2022-08-29T07:08:24.067Z,3.60
2022-08-29T07:09:24.046Z,3.60
2022-08-29T07:10:24.033Z,3.60
2022-08-29T07:11:24.013Z,3.60
2022-08-29T07:12:23.997Z,3.60
2022-08-29T07:13:23.982Z,3.60
2022-08-29T07:14:23.968Z,3.60
2022-08-29T07:15:24.081Z,3.70
2022-08-29T07:16:23.999Z,3.70
2022-08-29T07:17:25.925Z,3.90
2022-08-29T07:18:23.899Z,4.20
2022-08-29T07:19:23.882Z,3.70
2022-08-29T07:20:23.861Z,3.80
2022-08-29T07:21:23.853Z,4.10
2022-08-29T07:22:23.826Z,3.70
2022-08-29T07:23:23.807Z,3.60
2022-08-29T07:24:24.956Z,4.00
2022-08-29T07:25:24.775Z,3.60
2022-08-29T07:26:23.757Z,4.00
2022-08-29T07:27:23.743Z,3.90
2022-08-29T07:28:23.723Z,3.90
2022-08-29T07:29:23.709Z,3.60
2022-08-29T07:30:23.716Z,3.90
2022-08-29T07:31:23.715Z,3.70
2022-08-29T07:32:25.854Z,3.80
2022-08-29T07:33:24.641Z,3.70
2022-08-29T07:34:23.630Z,3.80
2022-08-29T07:35:30.292Z,4.00
2022-08-29T07:36:25.593Z,3.70
2022-08-29T07:37:23.577Z,3.50
2022-08-29T07:38:23.556Z,3.40
2022-08-29T07:39:23.539Z,3.30
2022-08-29T07:40:23.625Z,3.30
2022-08-29T07:41:23.505Z,3.30
2022-08-29T07:42:23.489Z,3.40
2022-08-29T07:43:27.768Z,3.30
2022-08-29T07:44:24.453Z,3.50
2022-08-29T07:45:23.438Z,3.20
2022-08-29T07:46:23.458Z,3.10
2022-08-29T07:47:23.408Z,3.40
2022-08-29T07:48:23.488Z,3.10
2022-08-29T07:49:32.377Z,3.30
2022-08-29T07:50:24.352Z,3.20
2022-08-29T07:51:23.331Z,3.20
2022-08-29T07:52:23.313Z,3.20
2022-08-29T07:53:23.293Z,3.20
2022-08-29T07:54:23.274Z,3.20
2022-08-29T07:55:23.259Z,3.10
2022-08-29T07:56:23.234Z,2.70
2022-08-29T07:57:23.221Z,2.90
2022-08-29T07:58:23.204Z,3.00
2022-08-29T07:59:23.184Z,2.80
2022-08-29T08:00:23.167Z,3.00
2022-08-29T08:01:23.211Z,2.90
2022-08-29T08:02:23.165Z,2.70
2022-08-29T08:03:23.118Z,2.60
2022-08-29T08:04:23.091Z,2.80
2022-08-29T08:05:23.075Z,2.80
2022-08-29T08:06:23.060Z,2.70
2022-08-29T08:07:23.049Z,2.60
2022-08-29T08:08:24.023Z,3.00
2022-08-29T08:09:23.014Z,3.00
2022-08-29T08:10:22.993Z,3.20
2022-08-29T08:11:22.977Z,2.80
2022-08-29T08:12:22.959Z,2.90
2022-08-29T08:13:22.939Z,3.10
2022-08-29T08:14:22.918Z,3.10
2022-08-29T08:15:23.902Z,3.30
2022-08-29T08:16:22.945Z,3.30
2022-08-29T08:17:22.861Z,2.80
2022-08-29T08:18:23.850Z,2.60
2022-08-29T08:19:22.830Z,2.70
2022-08-29T08:20:22.808Z,2.70
2022-08-29T08:21:22.797Z,2.60
2022-08-29T08:22:22.774Z,2.70
2022-08-29T08:23:22.758Z,2.80
2022-08-29T08:24:22.738Z,2.70
2022-08-29T08:25:24.432Z,2.60
2022-08-29T08:26:22.702Z,2.70
2022-08-29T08:27:22.686Z,2.50
2022-08-29T08:28:22.667Z,2.50
2022-08-29T08:29:22.647Z,2.60
2022-08-29T08:30:22.627Z,2.70
2022-08-29T08:31:22.656Z,2.70
2022-08-29T08:32:22.595Z,2.70
2022-08-29T08:33:23.579Z,2.50
2022-08-29T08:34:22.561Z,2.70
2022-08-29T08:35:23.004Z,2.50
2022-08-29T08:36:23.518Z,2.50
2022-08-29T08:37:27.972Z,2.70
2022-08-29T08:38:24.498Z,2.80
2022-08-29T08:39:22.470Z,2.50
2022-08-29T08:40:22.554Z,2.80
2022-08-29T08:41:26.896Z,2.70
2022-08-29T08:42:24.993Z,2.70
2022-08-29T08:43:26.585Z,2.80
2022-08-29T08:44:22.383Z,2.50
2022-08-29T08:45:22.359Z,2.80
2022-08-29T08:46:22.420Z,2.70
2022-08-29T08:47:22.320Z,2.60
2022-08-29T08:48:22.301Z,2.70
2022-08-29T08:49:22.284Z,2.60
2022-08-29T08:50:22.267Z,2.50
2022-08-29T08:51:22.246Z,2.60
2022-08-29T08:52:22.228Z,2.50
2022-08-29T08:53:22.208Z,2.60
2022-08-29T08:54:22.192Z,2.50
2022-08-29T08:55:22.167Z,2.50
2022-08-29T08:56:22.153Z,2.70
2022-08-29T08:57:22.134Z,2.50
2022-08-29T08:58:28.730Z,3.00
2022-08-29T08:59:23.093Z,2.60
2022-08-29T09:00:22.081Z,2.30
2022-08-29T09:01:22.159Z,2.50
2022-08-29T09:02:22.084Z,2.60
2022-08-29T09:03:22.023Z,2.40
2022-08-29T09:04:22.005Z,2.30
2022-08-29T09:05:21.985Z,2.90
2022-08-29T09:06:21.969Z,2.60
2022-08-29T09:07:21.949Z,2.80
2022-08-29T09:08:21.933Z,2.60
2022-08-29T09:09:21.913Z,2.70
2022-08-29T09:10:21.892Z,2.50
2022-08-29T09:11:21.870Z,2.60
2022-08-29T09:12:21.852Z,2.70
2022-08-29T09:13:21.839Z,2.70
2022-08-29T09:14:21.816Z,2.80
2022-08-29T09:15:21.796Z,2.50
2022-08-29T09:16:25.073Z,2.90
2022-08-29T09:17:21.760Z,2.80
2022-08-29T09:18:23.975Z,2.70
2022-08-29T09:19:22.732Z,2.60
2022-08-29T09:20:21.707Z,2.80
2022-08-29T09:21:39.992Z,3.00
2022-08-29T09:22:23.674Z,2.90
2022-08-29T09:23:21.652Z,2.90
2022-08-29T09:24:21.632Z,2.50
2022-08-29T09:25:24.994Z,2.40
2022-08-29T09:26:23.594Z,2.30
2022-08-29T09:27:21.580Z,2.50
2022-08-29T09:28:21.563Z,2.60
2022-08-29T09:29:21.545Z,2.60
2022-08-29T09:30:21.527Z,2.50
2022-08-29T09:31:21.547Z,2.40
2022-08-29T09:32:22.605Z,2.40
2022-08-29T09:33:22.469Z,2.80
2022-08-29T09:34:21.451Z,2.50
2022-08-29T09:35:21.435Z,2.50
2022-08-29T09:36:21.417Z,2.50
2022-08-29T09:37:21.397Z,2.60
2022-08-29T09:38:21.380Z,2.50
2022-08-29T09:39:21.365Z,2.50
2022-08-29T09:40:21.455Z,2.50
2022-08-29T09:41:21.331Z,2.50
2022-08-29T09:42:21.311Z,2.50
2022-08-29T09:43:21.297Z,2.40
2022-08-29T09:44:21.278Z,2.60
2022-08-29T09:45:21.254Z,2.20
2022-08-29T09:46:21.336Z,2.40
2022-08-29T09:47:21.219Z,2.50
2022-08-29T09:48:21.201Z,2.70
2022-08-29T09:49:21.178Z,2.50
2022-08-29T09:50:21.166Z,2.60
2022-08-29T09:51:21.144Z,2.50
2022-08-29T09:52:21.158Z,2.60
2022-08-29T09:53:24.661Z,2.40
2022-08-29T09:54:21.097Z,2.80
2022-08-29T09:55:21.079Z,2.40
2022-08-29T09:56:21.120Z,2.30
2022-08-29T09:57:21.041Z,2.50
2022-08-29T09:58:21.027Z,2.30
2022-08-29T09:59:21.001Z,2.40
2022-08-29T10:00:20.990Z,2.60
2022-08-29T10:01:22.706Z,2.60
2022-08-29T10:02:21.994Z,2.30
2022-08-29T10:03:20.931Z,2.30
2022-08-29T10:04:20.909Z,2.50
2022-08-29T10:05:20.894Z,2.30
2022-08-29T10:06:20.874Z,2.60
2022-08-29T10:07:20.859Z,2.50
2022-08-29T10:08:20.843Z,2.50
2022-08-29T10:09:20.821Z,2.30
2022-08-29T10:10:20.819Z,2.40
2022-08-29T10:11:20.782Z,2.50
2022-08-29T10:12:20.765Z,2.30
2022-08-29T10:13:20.744Z,2.40
2022-08-29T10:14:20.728Z,2.50
2022-08-29T10:15:46.508Z,2.50
2022-08-29T10:16:22.728Z,2.40
2022-08-29T10:17:20.709Z,2.60
2022-08-29T10:18:20.658Z,2.40
2022-08-29T10:19:20.638Z,2.40
2022-08-29T10:20:20.620Z,2.50
2022-08-29T10:21:20.604Z,2.60
2022-08-29T10:23:21.578Z,2.60
2022-08-29T10:24:20.553Z,2.30
2022-08-29T10:25:20.532Z,2.30
2022-08-29T10:26:20.517Z,2.50
2022-08-29T10:27:20.492Z,2.70
2022-08-29T10:28:20.491Z,2.30
2022-08-29T10:29:20.452Z,2.30
2022-08-29T10:30:20.437Z,2.30
2022-08-29T10:31:20.461Z,2.40
2022-08-29T10:32:20.397Z,2.30
2022-08-29T10:33:20.373Z,2.40
2022-08-29T10:34:20.355Z,2.20
2022-08-29T10:35:20.336Z,2.20
2022-08-29T10:36:20.319Z,2.40
2022-08-29T10:37:20.305Z,2.20
2022-08-29T10:38:20.280Z,2.30
2022-08-29T10:39:20.260Z,2.40
2022-08-29T10:40:20.280Z,2.20
2022-08-29T10:41:20.224Z,2.40
2022-08-29T10:42:20.220Z,2.30
2022-08-29T10:43:20.201Z,2.20
2022-08-29T10:44:20.196Z,2.40
2022-08-29T10:45:20.193Z,2.40
2022-08-29T10:46:20.128Z,2.20
2022-08-29T10:47:20.108Z,2.30
2022-08-29T10:48:20.090Z,2.30
2022-08-29T10:49:20.075Z,2.30
2022-08-29T10:50:40.809Z,2.40
2022-08-29T10:51:22.042Z,2.40
2022-08-29T10:52:20.020Z,2.20
2022-08-29T10:53:20.006Z,2.20
2022-08-29T10:54:19.987Z,2.40
2022-08-29T10:55:19.967Z,2.30
2022-08-29T10:56:19.943Z,2.30
2022-08-29T10:57:19.927Z,2.20
2022-08-29T10:58:19.906Z,2.40
2022-08-29T10:59:19.892Z,2.20
2022-08-29T11:00:19.868Z,2.40
2022-08-29T11:01:19.931Z,2.10
2022-08-29T11:02:19.836Z,2.40
2022-08-29T11:03:19.821Z,2.40
2022-08-29T11:04:19.872Z,2.10
2022-08-29T11:05:19.785Z,2.10
2022-08-29T11:06:22.642Z,2.20
2022-08-29T11:07:19.746Z,2.10
2022-08-29T11:08:20.001Z,2.10
2022-08-29T11:09:19.701Z,2.10
2022-08-29T11:10:19.691Z,2.20
2022-08-29T11:11:19.670Z,2.10
2022-08-29T11:12:19.651Z,2.00
2022-08-29T11:13:19.630Z,1.80
2022-08-29T11:14:19.610Z,2.10
2022-08-29T11:15:19.590Z,2.00
2022-08-29T11:16:19.605Z,2.10
2022-08-29T11:17:19.557Z,2.00
2022-08-29T11:18:22.397Z,2.10
2022-08-29T11:19:22.396Z,2.00
2022-08-29T11:20:20.500Z,2.10
2022-08-29T11:21:19.482Z,2.10
2022-08-29T11:22:19.465Z,2.10
2022-08-29T11:23:19.442Z,2.10
2022-08-29T11:24:19.427Z,2.40
2022-08-29T11:25:19.404Z,2.30
2022-08-29T11:26:19.396Z,2.20
2022-08-29T11:27:19.371Z,2.20
2022-08-29T11:28:19.352Z,2.30
2022-08-29T11:29:19.336Z,2.10
2022-08-29T11:30:19.315Z,2.30
2022-08-29T11:31:19.345Z,2.20
2022-08-29T11:32:19.280Z,2.30
2022-08-29T11:33:19.261Z,2.50
2022-08-29T11:34:19.244Z,2.10
2022-08-29T11:35:19.227Z,2.30
2022-08-29T11:36:19.209Z,2.20
2022-08-29T11:37:19.186Z,2.30
2022-08-29T11:38:19.167Z,2.50
2022-08-29T11:39:19.151Z,2.40
2022-08-29T11:40:19.245Z,2.60
2022-08-29T11:41:27.541Z,2.20
2022-08-29T11:42:51.001Z,2.50
2022-08-29T11:43:21.077Z,2.10
2022-08-29T11:44:19.056Z,2.40
2022-08-29T11:45:19.030Z,2.30
2022-08-29T11:46:19.074Z,2.20
2022-08-29T11:47:19.044Z,2.20
2022-08-29T11:48:18.978Z,2.20
2022-08-29T11:49:18.957Z,2.30
2022-08-29T11:50:18.939Z,2.40
2022-08-29T11:51:18.923Z,2.20
2022-08-29T11:52:21.781Z,2.30
2022-08-29T11:53:20.042Z,2.30
2022-08-29T11:54:18.867Z,2.40
2022-08-29T11:55:18.847Z,2.40
2022-08-29T11:56:18.829Z,2.30
2022-08-29T11:57:18.812Z,2.40
2022-08-29T11:58:18.792Z,2.30
2022-08-29T11:59:18.779Z,2.40
2022-08-29T12:00:18.807Z,2.40
2022-08-29T12:01:18.957Z,2.30
2022-08-29T12:02:19.739Z,2.20
2022-08-29T12:03:28.034Z,2.40
2022-08-29T12:04:20.707Z,2.30
2022-08-29T12:05:18.669Z,2.30
2022-08-29T12:06:18.641Z,2.40
2022-08-29T12:07:18.617Z,2.40
2022-08-29T12:08:36.137Z,2.30
2022-08-29T12:09:20.582Z,2.20
2022-08-29T12:10:18.565Z,2.50
2022-08-29T12:11:18.547Z,2.30
2022-08-29T12:12:18.523Z,2.40
2022-08-29T12:13:18.506Z,2.40
2022-08-29T12:14:18.483Z,2.40
2022-08-29T12:15:18.466Z,2.30
2022-08-29T12:16:18.498Z,2.30
2022-08-29T12:17:18.428Z,2.60
2022-08-29T12:18:18.403Z,2.40
2022-08-29T12:19:18.387Z,2.40
2022-08-29T12:20:18.365Z,2.30
2022-08-29T12:21:18.348Z,2.30
2022-08-29T12:22:22.525Z,2.40
2022-08-29T12:23:18.393Z,2.20
2022-08-29T12:24:18.286Z,2.30
2022-08-29T12:25:18.268Z,2.30
2022-08-29T12:26:22.489Z,2.50
2022-08-29T12:27:20.318Z,2.50
2022-08-29T12:28:18.205Z,2.40
2022-08-29T12:29:19.451Z,2.30
2022-08-29T12:30:18.170Z,2.80
2022-08-29T12:31:18.191Z,2.50
2022-08-29T12:32:23.057Z,2.30
2022-08-29T12:33:20.110Z,2.60
2022-08-29T12:34:18.092Z,2.40
2022-08-29T12:35:19.085Z,2.30
2022-08-29T12:36:18.058Z,2.60
2022-08-29T12:37:18.039Z,2.40
2022-08-29T12:38:18.018Z,2.40
2022-08-29T12:39:19.547Z,2.30
2022-08-29T12:40:18.053Z,2.40
2022-08-29T12:41:17.958Z,2.50
2022-08-29T12:42:17.941Z,2.70
2022-08-29T12:43:17.935Z,2.50
2022-08-29T12:44:17.907Z,2.40
2022-08-29T12:45:17.883Z,2.40
2022-08-29T12:46:17.908Z,2.30
2022-08-29T12:47:17.844Z,2.60
2022-08-29T12:48:17.829Z,2.20
2022-08-29T12:49:17.806Z,2.30
2022-08-29T12:50:17.791Z,2.40
2022-08-29T12:51:17.770Z,2.90
2022-08-29T12:52:17.752Z,2.30
2022-08-29T12:53:17.730Z,2.40
2022-08-29T12:54:17.740Z,2.50
2022-08-29T12:55:17.693Z,2.50
2022-08-29T12:56:17.672Z,2.40
2022-08-29T12:57:17.651Z,2.60
2022-08-29T12:58:17.634Z,2.10
2022-08-29T12:59:17.611Z,2.60
2022-08-29T13:00:17.589Z,2.30
2022-08-29T13:01:17.615Z,2.30
2022-08-29T13:02:17.623Z,2.30
2022-08-29T13:03:17.631Z,2.40
2022-08-29T13:04:17.532Z,2.20
2022-08-29T13:05:17.512Z,2.30
2022-08-29T13:06:17.478Z,2.30
2022-08-29T13:07:17.639Z,2.30
2022-08-29T13:08:17.637Z,2.30
2022-08-29T13:09:17.415Z,2.50
2022-08-29T13:10:17.401Z,2.30
2022-08-29T13:11:17.378Z,2.30
2022-08-29T13:12:17.371Z,2.30
2022-08-29T13:13:17.339Z,2.20
2022-08-29T13:14:17.327Z,2.30
2022-08-29T13:15:17.300Z,2.40
2022-08-29T13:16:17.332Z,2.30
2022-08-29T13:17:17.257Z,2.40
2022-08-29T13:18:17.366Z,2.40
2022-08-29T13:19:17.220Z,2.40